sensor_id;sensor_type;location;lat;lon;timestamp;P1;durP1;ratioP1;P2;durP2;ratioP2
55300;SDS011;58302;51.446;-2.000;2022-11-04T00:01:44;9.93;;;3.90;;
55300;SDS011;58302;51.446;-2.000;2022-11-04T00:04:11;9.57;;;4.30;;
55300;SDS011;58302;51.446;-2.000;2022-11-04T00:06:39;10.35;;;4.55;;
55300;SDS011;58302;51.446;-2.000;2022-11-04T00:09:06;8.05;;;4.13;;
55300;SDS011;58302;51.446;-2.000;2022-11-04T00:11:34;10.27;;;4.53;;
55300;SDS011;58302;51.446;-2.000;2022-11-04T00:14:18;9.52;;;5.07;;
55300;SDS011;58302;51.446;-2.000;2022-11-04T00:16:44;7.10;;;4.30;;
55300;SDS011;58302;51.446;-2.000;2022-11-04T00:19:29;13.00;;;4.75;;
55300;SDS011;58302;51.446;-2.000;2022-11-04T00:22:15;7.63;;;4.45;;
55300;SDS011;58302;51.446;-2.000;2022-11-04T00:27:44;8.85;;;4.50;;
55300;SDS011;58302;51.446;-2.000;2022-11-04T00:30:28;7.88;;;3.70;;
55300;SDS011;58302;51.446;-2.000;2022-11-04T00:32:54;6.85;;;3.72;;
55300;SDS011;58302;51.446;-2.000;2022-11-04T00:35:39;4.88;;;3.45;;
55300;SDS011;58302;51.446;-2.000;2022-11-04T00:38:05;7.70;;;3.80;;
55300;SDS011;58302;51.446;-2.000;2022-11-04T00:40:31;7.93;;;4.32;;
55300;SDS011;58302;51.446;-2.000;2022-11-04T00:42:57;9.00;;;4.50;;
55300;SDS011;58302;51.446;-2.000;2022-11-04T00:45:23;8.63;;;4.68;;
55300;SDS011;58302;51.446;-2.000;2022-11-04T00:47:49;12.10;;;5.50;;
55300;SDS011;58302;51.446;-2.000;2022-11-04T00:50:14;13.13;;;5.10;;
55300;SDS011;58302;51.446;-2.000;2022-11-04T00:52:40;13.27;;;5.63;;
55300;SDS011;58302;51.446;-2.000;2022-11-04T00:55:07;11.82;;;5.30;;
55300;SDS011;58302;51.446;-2.000;2022-11-04T00:57:33;12.77;;;5.68;;
55300;SDS011;58302;51.446;-2.000;2022-11-04T00:59:59;11.80;;;5.32;;
55300;SDS011;58302;51.446;-2.000;2022-11-04T01:02:24;9.80;;;5.82;;
55300;SDS011;58302;51.446;-2.000;2022-11-04T01:04:50;10.25;;;5.55;;
55300;SDS011;58302;51.446;-2.000;2022-11-04T01:07:16;13.55;;;6.63;;
55300;SDS011;58302;51.446;-2.000;2022-11-04T01:09:42;10.50;;;4.80;;
55300;SDS011;58302;51.446;-2.000;2022-11-04T01:12:08;9.05;;;4.20;;
55300;SDS011;58302;51.446;-2.000;2022-11-04T01:14:34;10.80;;;4.90;;
55300;SDS011;58302;51.446;-2.000;2022-11-04T01:17:00;9.38;;;5.30;;
55300;SDS011;58302;51.446;-2.000;2022-11-04T01:19:26;12.13;;;5.75;;
55300;SDS011;58302;51.446;-2.000;2022-11-04T01:21:52;8.93;;;4.78;;
55300;SDS011;58302;51.446;-2.000;2022-11-04T01:24:18;11.75;;;6.45;;
55300;SDS011;58302;51.446;-2.000;2022-11-04T01:26:44;9.45;;;4.50;;
55300;SDS011;58302;51.446;-2.000;2022-11-04T01:29:10;10.25;;;3.72;;
55300;SDS011;58302;51.446;-2.000;2022-11-04T01:31:36;10.90;;;5.40;;
55300;SDS011;58302;51.446;-2.000;2022-11-04T01:34:02;11.73;;;5.15;;
55300;SDS011;58302;51.446;-2.000;2022-11-04T01:36:28;7.65;;;4.38;;
55300;SDS011;58302;51.446;-2.000;2022-11-04T01:38:54;10.70;;;4.65;;
55300;SDS011;58302;51.446;-2.000;2022-11-04T01:41:23;6.78;;;3.85;;
55300;SDS011;58302;51.446;-2.000;2022-11-04T01:46:30;6.28;;;3.90;;
55300;SDS011;58302;51.446;-2.000;2022-11-04T01:49:21;10.55;;;4.60;;
55300;SDS011;58302;51.446;-2.000;2022-11-04T01:54:49;6.25;;;3.40;;
55300;SDS011;58302;51.446;-2.000;2022-11-04T01:57:22;9.00;;;3.45;;
55300;SDS011;58302;51.446;-2.000;2022-11-04T01:59:54;6.93;;;3.10;;
55300;SDS011;58302;51.446;-2.000;2022-11-04T02:02:24;4.43;;;3.40;;
55300;SDS011;58302;51.446;-2.000;2022-11-04T02:04:50;5.30;;;3.10;;
55300;SDS011;58302;51.446;-2.000;2022-11-04T02:07:17;9.98;;;3.92;;
55300;SDS011;58302;51.446;-2.000;2022-11-04T02:09:43;4.68;;;3.00;;
55300;SDS011;58302;51.446;-2.000;2022-11-04T02:12:09;5.53;;;3.47;;
55300;SDS011;58302;51.446;-2.000;2022-11-04T02:14:53;3.95;;;2.45;;
55300;SDS011;58302;51.446;-2.000;2022-11-04T02:17:37;4.35;;;2.95;;
55300;SDS011;58302;51.446;-2.000;2022-11-04T02:20:28;7.75;;;3.55;;
55300;SDS011;58302;51.446;-2.000;2022-11-04T02:31:50;4.85;;;3.38;;
55300;SDS011;58302;51.446;-2.000;2022-11-04T02:34:40;9.88;;;3.58;;
55300;SDS011;58302;51.446;-2.000;2022-11-04T02:43:01;10.10;;;4.72;;
55300;SDS011;58302;51.446;-2.000;2022-11-04T02:45:59;10.25;;;4.55;;
55300;SDS011;58302;51.446;-2.000;2022-11-04T02:48:35;9.98;;;4.68;;
55300;SDS011;58302;51.446;-2.000;2022-11-04T02:51:08;13.32;;;5.30;;
55300;SDS011;58302;51.446;-2.000;2022-11-04T02:56:07;10.90;;;4.15;;
55300;SDS011;58302;51.446;-2.000;2022-11-04T02:58:37;7.82;;;3.88;;
55300;SDS011;58302;51.446;-2.000;2022-11-04T03:01:07;7.50;;;3.85;;
55300;SDS011;58302;51.446;-2.000;2022-11-04T03:03:39;8.10;;;4.47;;
55300;SDS011;58302;51.446;-2.000;2022-11-04T03:06:10;9.93;;;4.45;;
55300;SDS011;58302;51.446;-2.000;2022-11-04T03:08:44;15.75;;;5.32;;
55300;SDS011;58302;51.446;-2.000;2022-11-04T03:11:14;7.00;;;4.28;;
55300;SDS011;58302;51.446;-2.000;2022-11-04T03:13:47;8.32;;;4.30;;
55300;SDS011;58302;51.446;-2.000;2022-11-04T03:16:29;7.60;;;3.65;;
55300;SDS011;58302;51.446;-2.000;2022-11-04T03:19:07;6.13;;;3.47;;
55300;SDS011;58302;51.446;-2.000;2022-11-04T03:21:38;9.40;;;4.25;;
55300;SDS011;58302;51.446;-2.000;2022-11-04T03:24:10;7.53;;;4.60;;
55300;SDS011;58302;51.446;-2.000;2022-11-04T03:26:43;7.43;;;3.80;;
55300;SDS011;58302;51.446;-2.000;2022-11-04T03:29:19;10.27;;;3.83;;
55300;SDS011;58302;51.446;-2.000;2022-11-04T03:31:56;7.55;;;2.95;;
55300;SDS011;58302;51.446;-2.000;2022-11-04T03:34:35;9.75;;;4.32;;
55300;SDS011;58302;51.446;-2.000;2022-11-04T03:37:02;7.57;;;3.17;;
55300;SDS011;58302;51.446;-2.000;2022-11-04T03:39:28;7.90;;;3.90;;
55300;SDS011;58302;51.446;-2.000;2022-11-04T03:41:55;6.95;;;3.47;;
55300;SDS011;58302;51.446;-2.000;2022-11-04T03:44:23;8.07;;;3.42;;
55300;SDS011;58302;51.446;-2.000;2022-11-04T03:46:52;8.13;;;3.60;;
55300;SDS011;58302;51.446;-2.000;2022-11-04T03:49:19;6.10;;;3.30;;
55300;SDS011;58302;51.446;-2.000;2022-11-04T03:51:47;10.60;;;4.32;;
55300;SDS011;58302;51.446;-2.000;2022-11-04T03:54:13;10.15;;;4.55;;
55300;SDS011;58302;51.446;-2.000;2022-11-04T04:04:39;15.43;;;6.18;;
55300;SDS011;58302;51.446;-2.000;2022-11-04T04:07:17;14.80;;;5.35;;
55300;SDS011;58302;51.446;-2.000;2022-11-04T04:09:58;13.98;;;6.07;;
55300;SDS011;58302;51.446;-2.000;2022-11-04T04:12:49;13.82;;;6.88;;
55300;SDS011;58302;51.446;-2.000;2022-11-04T04:15:19;14.70;;;7.15;;
55300;SDS011;58302;51.446;-2.000;2022-11-04T04:20:20;16.23;;;6.93;;
55300;SDS011;58302;51.446;-2.000;2022-11-04T04:22:50;15.38;;;8.75;;
55300;SDS011;58302;51.446;-2.000;2022-11-04T04:25:20;17.20;;;8.00;;
55300;SDS011;58302;51.446;-2.000;2022-11-04T04:28:09;22.15;;;9.38;;
55300;SDS011;58302;51.446;-2.000;2022-11-04T04:30:39;18.63;;;9.32;;
55300;SDS011;58302;51.446;-2.000;2022-11-04T04:33:08;19.13;;;9.27;;
55300;SDS011;58302;51.446;-2.000;2022-11-04T04:35:39;17.98;;;9.82;;
55300;SDS011;58302;51.446;-2.000;2022-11-04T04:38:22;23.23;;;11.93;;
55300;SDS011;58302;51.446;-2.000;2022-11-04T04:41:21;31.50;;;14.27;;
55300;SDS011;58302;51.446;-2.000;2022-11-04T04:44:21;26.00;;;13.57;;
55300;SDS011;58302;51.446;-2.000;2022-11-04T04:47:08;33.45;;;13.25;;
55300;SDS011;58302;51.446;-2.000;2022-11-04T04:52:21;25.52;;;13.63;;
55300;SDS011;58302;51.446;-2.000;2022-11-04T04:54:48;25.67;;;12.80;;
55300;SDS011;58302;51.446;-2.000;2022-11-04T04:57:14;26.27;;;13.07;;
55300;SDS011;58302;51.446;-2.000;2022-11-04T04:59:40;26.95;;;13.07;;
55300;SDS011;58302;51.446;-2.000;2022-11-04T05:02:06;26.67;;;13.80;;
55300;SDS011;58302;51.446;-2.000;2022-11-04T05:04:32;26.85;;;13.52;;
55300;SDS011;58302;51.446;-2.000;2022-11-04T05:06:58;25.08;;;13.65;;
55300;SDS011;58302;51.446;-2.000;2022-11-04T05:09:24;24.20;;;12.80;;
55300;SDS011;58302;51.446;-2.000;2022-11-04T05:11:50;24.63;;;13.98;;
55300;SDS011;58302;51.446;-2.000;2022-11-04T05:14:16;21.92;;;11.48;;
55300;SDS011;58302;51.446;-2.000;2022-11-04T05:16:42;27.15;;;13.15;;
55300;SDS011;58302;51.446;-2.000;2022-11-04T05:19:08;31.05;;;13.82;;
55300;SDS011;58302;51.446;-2.000;2022-11-04T05:21:34;28.48;;;14.20;;
55300;SDS011;58302;51.446;-2.000;2022-11-04T05:24:00;32.53;;;15.90;;
55300;SDS011;58302;51.446;-2.000;2022-11-04T05:26:26;26.10;;;15.52;;
55300;SDS011;58302;51.446;-2.000;2022-11-04T05:28:51;37.72;;;18.40;;
55300;SDS011;58302;51.446;-2.000;2022-11-04T05:31:17;38.40;;;19.23;;
55300;SDS011;58302;51.446;-2.000;2022-11-04T05:33:43;36.40;;;18.13;;
55300;SDS011;58302;51.446;-2.000;2022-11-04T05:36:13;30.05;;;17.65;;
55300;SDS011;58302;51.446;-2.000;2022-11-04T05:38:41;35.33;;;17.92;;
55300;SDS011;58302;51.446;-2.000;2022-11-04T05:41:08;40.72;;;21.38;;
55300;SDS011;58302;51.446;-2.000;2022-11-04T05:43:35;37.20;;;18.23;;
55300;SDS011;58302;51.446;-2.000;2022-11-04T05:46:02;41.50;;;20.48;;
55300;SDS011;58302;51.446;-2.000;2022-11-04T05:48:28;46.85;;;21.02;;
55300;SDS011;58302;51.446;-2.000;2022-11-04T05:50:55;46.17;;;23.65;;
55300;SDS011;58302;51.446;-2.000;2022-11-04T05:53:21;62.10;;;26.33;;
55300;SDS011;58302;51.446;-2.000;2022-11-04T05:55:47;54.60;;;25.10;;
55300;SDS011;58302;51.446;-2.000;2022-11-04T05:58:13;50.90;;;24.65;;
55300;SDS011;58302;51.446;-2.000;2022-11-04T06:00:39;47.25;;;24.05;;
55300;SDS011;58302;51.446;-2.000;2022-11-04T06:03:05;66.70;;;28.48;;
55300;SDS011;58302;51.446;-2.000;2022-11-04T06:05:31;61.00;;;26.90;;
55300;SDS011;58302;51.446;-2.000;2022-11-04T06:07:57;57.55;;;23.60;;
55300;SDS011;58302;51.446;-2.000;2022-11-04T06:10:23;60.95;;;25.50;;
55300;SDS011;58302;51.446;-2.000;2022-11-04T06:12:50;54.15;;;25.55;;
55300;SDS011;58302;51.446;-2.000;2022-11-04T06:15:15;60.97;;;27.42;;
55300;SDS011;58302;51.446;-2.000;2022-11-04T06:17:41;67.20;;;27.13;;
55300;SDS011;58302;51.446;-2.000;2022-11-04T06:20:08;73.93;;;28.45;;
55300;SDS011;58302;51.446;-2.000;2022-11-04T06:22:34;68.72;;;27.73;;
55300;SDS011;58302;51.446;-2.000;2022-11-04T06:25:00;62.08;;;28.52;;
55300;SDS011;58302;51.446;-2.000;2022-11-04T06:27:26;72.45;;;27.85;;
55300;SDS011;58302;51.446;-2.000;2022-11-04T06:29:52;68.68;;;28.38;;
55300;SDS011;58302;51.446;-2.000;2022-11-04T06:32:18;69.45;;;28.50;;
55300;SDS011;58302;51.446;-2.000;2022-11-04T06:34:44;71.75;;;31.75;;
55300;SDS011;58302;51.446;-2.000;2022-11-04T06:37:10;62.80;;;27.02;;
55300;SDS011;58302;51.446;-2.000;2022-11-04T06:39:37;82.95;;;33.72;;
55300;SDS011;58302;51.446;-2.000;2022-11-04T06:42:03;71.20;;;30.65;;
55300;SDS011;58302;51.446;-2.000;2022-11-04T06:44:29;79.75;;;32.45;;
55300;SDS011;58302;51.446;-2.000;2022-11-04T06:46:55;78.60;;;30.58;;
55300;SDS011;58302;51.446;-2.000;2022-11-04T06:49:21;65.25;;;28.67;;
55300;SDS011;58302;51.446;-2.000;2022-11-04T06:51:48;94.43;;;36.03;;
55300;SDS011;58302;51.446;-2.000;2022-11-04T06:54:15;90.40;;;36.13;;
55300;SDS011;58302;51.446;-2.000;2022-11-04T06:56:42;80.25;;;32.90;;
55300;SDS011;58302;51.446;-2.000;2022-11-04T06:59:10;81.65;;;31.38;;
55300;SDS011;58302;51.446;-2.000;2022-11-04T07:01:40;68.32;;;28.30;;
55300;SDS011;58302;51.446;-2.000;2022-11-04T07:04:06;91.85;;;35.10;;
55300;SDS011;58302;51.446;-2.000;2022-11-04T07:06:32;82.93;;;31.98;;
55300;SDS011;58302;51.446;-2.000;2022-11-04T07:08:58;67.32;;;29.40;;
55300;SDS011;58302;51.446;-2.000;2022-11-04T07:11:26;86.55;;;32.67;;
55300;SDS011;58302;51.446;-2.000;2022-11-04T07:13:54;94.13;;;37.28;;
55300;SDS011;58302;51.446;-2.000;2022-11-04T07:16:20;84.55;;;32.20;;
55300;SDS011;58302;51.446;-2.000;2022-11-04T07:18:46;98.45;;;37.50;;
55300;SDS011;58302;51.446;-2.000;2022-11-04T07:21:13;87.45;;;36.20;;
55300;SDS011;58302;51.446;-2.000;2022-11-04T07:23:39;79.10;;;31.75;;
55300;SDS011;58302;51.446;-2.000;2022-11-04T07:26:06;90.28;;;36.15;;
55300;SDS011;58302;51.446;-2.000;2022-11-04T07:28:33;82.20;;;34.17;;
55300;SDS011;58302;51.446;-2.000;2022-11-04T07:31:00;83.00;;;32.13;;
55300;SDS011;58302;51.446;-2.000;2022-11-04T07:33:27;64.15;;;28.75;;
55300;SDS011;58302;51.446;-2.000;2022-11-04T07:35:53;66.50;;;29.25;;
55300;SDS011;58302;51.446;-2.000;2022-11-04T07:38:20;68.82;;;30.65;;
55300;SDS011;58302;51.446;-2.000;2022-11-04T07:40:46;75.68;;;32.45;;
55300;SDS011;58302;51.446;-2.000;2022-11-04T07:43:13;60.83;;;29.95;;
55300;SDS011;58302;51.446;-2.000;2022-11-04T07:45:40;67.65;;;27.42;;
55300;SDS011;58302;51.446;-2.000;2022-11-04T07:48:06;66.10;;;26.63;;
55300;SDS011;58302;51.446;-2.000;2022-11-04T07:50:33;48.30;;;24.20;;
55300;SDS011;58302;51.446;-2.000;2022-11-04T07:52:59;47.90;;;20.23;;
55300;SDS011;58302;51.446;-2.000;2022-11-04T07:55:25;51.03;;;20.80;;
55300;SDS011;58302;51.446;-2.000;2022-11-04T07:57:52;45.15;;;20.08;;
55300;SDS011;58302;51.446;-2.000;2022-11-04T08:00:19;31.75;;;15.85;;
55300;SDS011;58302;51.446;-2.000;2022-11-04T08:02:45;46.10;;;18.38;;
55300;SDS011;58302;51.446;-2.000;2022-11-04T08:05:11;29.88;;;15.63;;
55300;SDS011;58302;51.446;-2.000;2022-11-04T08:07:41;29.90;;;13.85;;
55300;SDS011;58302;51.446;-2.000;2022-11-04T08:10:07;28.02;;;13.50;;
55300;SDS011;58302;51.446;-2.000;2022-11-04T08:12:34;30.77;;;13.02;;
55300;SDS011;58302;51.446;-2.000;2022-11-04T08:15:02;24.35;;;10.10;;
55300;SDS011;58302;51.446;-2.000;2022-11-04T08:17:29;21.10;;;11.02;;
55300;SDS011;58302;51.446;-2.000;2022-11-04T08:19:55;20.73;;;9.43;;
55300;SDS011;58302;51.446;-2.000;2022-11-04T08:22:21;14.57;;;7.70;;
55300;SDS011;58302;51.446;-2.000;2022-11-04T08:24:47;14.68;;;7.75;;
55300;SDS011;58302;51.446;-2.000;2022-11-04T08:27:14;12.15;;;6.93;;
55300;SDS011;58302;51.446;-2.000;2022-11-04T08:29:40;13.70;;;6.07;;
55300;SDS011;58302;51.446;-2.000;2022-11-04T08:32:06;16.02;;;6.65;;
55300;SDS011;58302;51.446;-2.000;2022-11-04T08:34:32;17.98;;;7.95;;
55300;SDS011;58302;51.446;-2.000;2022-11-04T08:36:58;13.52;;;5.50;;
55300;SDS011;58302;51.446;-2.000;2022-11-04T08:39:25;10.15;;;5.05;;
55300;SDS011;58302;51.446;-2.000;2022-11-04T08:41:51;16.45;;;7.93;;
55300;SDS011;58302;51.446;-2.000;2022-11-04T08:44:18;10.18;;;5.43;;
55300;SDS011;58302;51.446;-2.000;2022-11-04T08:46:44;11.27;;;5.47;;
55300;SDS011;58302;51.446;-2.000;2022-11-04T08:49:11;11.93;;;5.60;;
55300;SDS011;58302;51.446;-2.000;2022-11-04T08:51:39;10.75;;;4.95;;
55300;SDS011;58302;51.446;-2.000;2022-11-04T08:54:09;9.88;;;4.55;;
55300;SDS011;58302;51.446;-2.000;2022-11-04T08:56:35;14.60;;;4.97;;
55300;SDS011;58302;51.446;-2.000;2022-11-04T08:59:04;15.80;;;6.20;;
55300;SDS011;58302;51.446;-2.000;2022-11-04T09:01:31;12.25;;;5.18;;
55300;SDS011;58302;51.446;-2.000;2022-11-04T09:03:59;8.57;;;4.75;;
55300;SDS011;58302;51.446;-2.000;2022-11-04T09:06:27;8.88;;;4.60;;
55300;SDS011;58302;51.446;-2.000;2022-11-04T09:08:55;8.52;;;4.20;;
55300;SDS011;58302;51.446;-2.000;2022-11-04T09:11:26;12.98;;;5.78;;
55300;SDS011;58302;51.446;-2.000;2022-11-04T09:13:52;10.55;;;4.50;;
55300;SDS011;58302;51.446;-2.000;2022-11-04T09:16:18;6.45;;;4.10;;
55300;SDS011;58302;51.446;-2.000;2022-11-04T09:18:44;9.65;;;4.05;;
55300;SDS011;58302;51.446;-2.000;2022-11-04T09:21:10;11.60;;;4.60;;
55300;SDS011;58302;51.446;-2.000;2022-11-04T09:23:37;6.68;;;4.13;;
55300;SDS011;58302;51.446;-2.000;2022-11-04T09:26:10;8.90;;;4.65;;
55300;SDS011;58302;51.446;-2.000;2022-11-04T09:28:38;7.82;;;4.10;;
55300;SDS011;58302;51.446;-2.000;2022-11-04T09:31:06;8.13;;;4.82;;
55300;SDS011;58302;51.446;-2.000;2022-11-04T09:33:42;10.35;;;4.85;;
55300;SDS011;58302;51.446;-2.000;2022-11-04T09:36:08;7.60;;;3.92;;
55300;SDS011;58302;51.446;-2.000;2022-11-04T09:38:35;10.77;;;3.90;;
55300;SDS011;58302;51.446;-2.000;2022-11-04T09:41:20;9.23;;;4.43;;
55300;SDS011;58302;51.446;-2.000;2022-11-04T09:44:13;6.47;;;2.70;;
55300;SDS011;58302;51.446;-2.000;2022-11-04T09:46:44;5.60;;;3.40;;
55300;SDS011;58302;51.446;-2.000;2022-11-04T09:49:14;6.35;;;2.72;;
55300;SDS011;58302;51.446;-2.000;2022-11-04T09:51:41;3.70;;;2.75;;
55300;SDS011;58302;51.446;-2.000;2022-11-04T09:54:28;6.75;;;2.45;;
55300;SDS011;58302;51.446;-2.000;2022-11-04T09:57:08;4.40;;;2.20;;
55300;SDS011;58302;51.446;-2.000;2022-11-04T09:59:41;5.63;;;2.70;;
55300;SDS011;58302;51.446;-2.000;2022-11-04T10:05:21;5.32;;;1.98;;
55300;SDS011;58302;51.446;-2.000;2022-11-04T10:17:01;3.78;;;1.77;;
55300;SDS011;58302;51.446;-2.000;2022-11-04T10:22:42;4.40;;;1.95;;
55300;SDS011;58302;51.446;-2.000;2022-11-04T10:25:21;4.47;;;1.55;;
55300;SDS011;58302;51.446;-2.000;2022-11-04T10:27:49;3.72;;;1.77;;
55300;SDS011;58302;51.446;-2.000;2022-11-04T10:30:17;4.13;;;1.70;;
55300;SDS011;58302;51.446;-2.000;2022-11-04T10:32:48;5.25;;;1.70;;
55300;SDS011;58302;51.446;-2.000;2022-11-04T10:35:21;3.35;;;1.35;;
55300;SDS011;58302;51.446;-2.000;2022-11-04T10:38:13;2.72;;;1.33;;
55300;SDS011;58302;51.446;-2.000;2022-11-04T10:40:40;4.28;;;1.30;;
55300;SDS011;58302;51.446;-2.000;2022-11-04T10:43:08;3.58;;;1.70;;
55300;SDS011;58302;51.446;-2.000;2022-11-04T10:45:51;6.05;;;1.63;;
55300;SDS011;58302;51.446;-2.000;2022-11-04T10:48:27;3.00;;;1.30;;
55300;SDS011;58302;51.446;-2.000;2022-11-04T10:50:59;5.47;;;1.23;;
55300;SDS011;58302;51.446;-2.000;2022-11-04T10:53:26;1.75;;;1.10;;
55300;SDS011;58302;51.446;-2.000;2022-11-04T10:58:25;3.67;;;1.20;;
55300;SDS011;58302;51.446;-2.000;2022-11-04T11:00:53;2.60;;;1.15;;
55300;SDS011;58302;51.446;-2.000;2022-11-04T11:05:51;2.83;;;1.30;;
55300;SDS011;58302;51.446;-2.000;2022-11-04T11:08:51;1.77;;;1.00;;
55300;SDS011;58302;51.446;-2.000;2022-11-04T11:11:11;6.65;;;1.83;;
55300;SDS011;58302;51.446;-2.000;2022-11-04T11:13:40;6.47;;;1.98;;
55300;SDS011;58302;51.446;-2.000;2022-11-04T11:16:24;2.20;;;1.27;;
55300;SDS011;58302;51.446;-2.000;2022-11-04T11:19:12;4.72;;;1.38;;
55300;SDS011;58302;51.446;-2.000;2022-11-04T11:21:44;3.03;;;1.65;;
55300;SDS011;58302;51.446;-2.000;2022-11-04T11:24:24;2.40;;;1.20;;
55300;SDS011;58302;51.446;-2.000;2022-11-04T11:26:53;2.95;;;1.58;;
55300;SDS011;58302;51.446;-2.000;2022-11-04T11:29:22;5.10;;;2.30;;
55300;SDS011;58302;51.446;-2.000;2022-11-04T11:31:53;3.88;;;1.85;;
55300;SDS011;58302;51.446;-2.000;2022-11-04T11:34:25;3.72;;;1.25;;
55300;SDS011;58302;51.446;-2.000;2022-11-04T11:36:52;2.53;;;1.40;;
55300;SDS011;58302;51.446;-2.000;2022-11-04T11:39:21;3.88;;;1.30;;
55300;SDS011;58302;51.446;-2.000;2022-11-04T11:41:57;2.08;;;1.23;;
55300;SDS011;58302;51.446;-2.000;2022-11-04T11:44:30;3.75;;;1.33;;
55300;SDS011;58302;51.446;-2.000;2022-11-04T11:47:05;2.55;;;1.15;;
55300;SDS011;58302;51.446;-2.000;2022-11-04T11:49:44;3.22;;;1.05;;
55300;SDS011;58302;51.446;-2.000;2022-11-04T11:55:14;2.15;;;1.30;;
55300;SDS011;58302;51.446;-2.000;2022-11-04T12:00:40;2.97;;;2.00;;
55300;SDS011;58302;51.446;-2.000;2022-11-04T12:11:51;3.72;;;1.77;;
55300;SDS011;58302;51.446;-2.000;2022-11-04T12:14:45;1.45;;;0.90;;
55300;SDS011;58302;51.446;-2.000;2022-11-04T12:23:07;2.80;;;1.52;;
55300;SDS011;58302;51.446;-2.000;2022-11-04T12:25:42;4.45;;;1.50;;
55300;SDS011;58302;51.446;-2.000;2022-11-04T12:39:20;5.07;;;1.60;;
55300;SDS011;58302;51.446;-2.000;2022-11-04T12:44:27;6.13;;;2.42;;
55300;SDS011;58302;51.446;-2.000;2022-11-04T12:47:42;3.58;;;1.13;;
55300;SDS011;58302;51.446;-2.000;2022-11-04T12:52:54;3.47;;;1.30;;
55300;SDS011;58302;51.446;-2.000;2022-11-04T12:55:28;2.63;;;1.40;;
55300;SDS011;58302;51.446;-2.000;2022-11-04T13:00:41;3.97;;;1.77;;
55300;SDS011;58302;51.446;-2.000;2022-11-04T13:03:17;2.20;;;1.58;;
55300;SDS011;58302;51.446;-2.000;2022-11-04T13:08:37;4.15;;;1.50;;
55300;SDS011;58302;51.446;-2.000;2022-11-04T13:11:15;4.85;;;1.98;;
55300;SDS011;58302;51.446;-2.000;2022-11-04T13:13:55;2.40;;;1.55;;
55300;SDS011;58302;51.446;-2.000;2022-11-04T13:16:26;3.15;;;1.45;;
55300;SDS011;58302;51.446;-2.000;2022-11-04T13:18:53;3.30;;;1.50;;
55300;SDS011;58302;51.446;-2.000;2022-11-04T13:21:23;4.75;;;1.67;;
55300;SDS011;58302;51.446;-2.000;2022-11-04T13:26:29;3.78;;;1.58;;
55300;SDS011;58302;51.446;-2.000;2022-11-04T13:31:27;5.10;;;2.05;;
55300;SDS011;58302;51.446;-2.000;2022-11-04T13:39:34;2.33;;;1.27;;
55300;SDS011;58302;51.446;-2.000;2022-11-04T13:45:03;4.10;;;2.17;;
55300;SDS011;58302;51.446;-2.000;2022-11-04T13:47:35;4.97;;;1.60;;
55300;SDS011;58302;51.446;-2.000;2022-11-04T13:50:25;2.70;;;1.77;;
55300;SDS011;58302;51.446;-2.000;2022-11-04T13:52:52;4.13;;;2.60;;
55300;SDS011;58302;51.446;-2.000;2022-11-04T13:55:18;4.57;;;1.75;;
55300;SDS011;58302;51.446;-2.000;2022-11-04T13:57:56;3.83;;;1.45;;
55300;SDS011;58302;51.446;-2.000;2022-11-04T14:02:55;4.22;;;1.50;;
55300;SDS011;58302;51.446;-2.000;2022-11-04T14:16:01;5.57;;;1.40;;
55300;SDS011;58302;51.446;-2.000;2022-11-04T14:18:33;3.42;;;1.42;;
55300;SDS011;58302;51.446;-2.000;2022-11-04T14:21:01;1.35;;;1.08;;
55300;SDS011;58302;51.446;-2.000;2022-11-04T14:23:30;4.78;;;1.85;;
55300;SDS011;58302;51.446;-2.000;2022-11-04T14:25:58;2.28;;;1.27;;
55300;SDS011;58302;51.446;-2.000;2022-11-04T14:28:27;2.45;;;1.27;;
55300;SDS011;58302;51.446;-2.000;2022-11-04T14:31:03;3.60;;;1.85;;
55300;SDS011;58302;51.446;-2.000;2022-11-04T14:33:38;3.30;;;1.45;;
55300;SDS011;58302;51.446;-2.000;2022-11-04T14:38:57;3.58;;;1.55;;
55300;SDS011;58302;51.446;-2.000;2022-11-04T14:43:53;2.10;;;1.20;;
55300;SDS011;58302;51.446;-2.000;2022-11-04T14:46:20;4.78;;;1.60;;
55300;SDS011;58302;51.446;-2.000;2022-11-04T14:48:50;4.00;;;1.40;;
55300;SDS011;58302;51.446;-2.000;2022-11-04T14:51:29;4.38;;;1.80;;
55300;SDS011;58302;51.446;-2.000;2022-11-04T14:54:04;4.25;;;1.40;;
55300;SDS011;58302;51.446;-2.000;2022-11-04T14:56:37;5.43;;;1.38;;
55300;SDS011;58302;51.446;-2.000;2022-11-04T14:59:04;3.10;;;1.50;;
55300;SDS011;58302;51.446;-2.000;2022-11-04T15:01:32;2.75;;;1.30;;
55300;SDS011;58302;51.446;-2.000;2022-11-04T15:04:09;5.03;;;1.55;;
55300;SDS011;58302;51.446;-2.000;2022-11-04T15:06:42;3.38;;;1.20;;
55300;SDS011;58302;51.446;-2.000;2022-11-04T15:14:53;3.78;;;1.58;;
55300;SDS011;58302;51.446;-2.000;2022-11-04T15:17:20;6.22;;;2.65;;
55300;SDS011;58302;51.446;-2.000;2022-11-04T15:19:50;3.30;;;2.03;;
55300;SDS011;58302;51.446;-2.000;2022-11-04T15:22:18;4.40;;;2.40;;
55300;SDS011;58302;51.446;-2.000;2022-11-04T15:24:44;1.55;;;1.15;;
55300;SDS011;58302;51.446;-2.000;2022-11-04T15:27:12;4.45;;;1.33;;
55300;SDS011;58302;51.446;-2.000;2022-11-04T15:30:03;3.78;;;1.50;;
55300;SDS011;58302;51.446;-2.000;2022-11-04T15:32:29;2.50;;;1.40;;
55300;SDS011;58302;51.446;-2.000;2022-11-04T15:34:56;2.28;;;1.48;;
55300;SDS011;58302;51.446;-2.000;2022-11-04T15:37:22;1.42;;;1.30;;
55300;SDS011;58302;51.446;-2.000;2022-11-04T15:39:51;1.83;;;1.10;;
55300;SDS011;58302;51.446;-2.000;2022-11-04T15:42:20;6.15;;;1.77;;
55300;SDS011;58302;51.446;-2.000;2022-11-04T15:50:52;2.20;;;1.13;;
55300;SDS011;58302;51.446;-2.000;2022-11-04T15:53:33;1.85;;;1.20;;
55300;SDS011;58302;51.446;-2.000;2022-11-04T15:56:12;8.18;;;1.83;;
55300;SDS011;58302;51.446;-2.000;2022-11-04T15:58:41;3.30;;;1.95;;
55300;SDS011;58302;51.446;-2.000;2022-11-04T16:01:13;3.58;;;1.45;;
55300;SDS011;58302;51.446;-2.000;2022-11-04T16:04:15;4.95;;;2.03;;
55300;SDS011;58302;51.446;-2.000;2022-11-04T16:06:37;3.40;;;1.30;;
55300;SDS011;58302;51.446;-2.000;2022-11-04T16:11:33;4.30;;;1.80;;
55300;SDS011;58302;51.446;-2.000;2022-11-04T16:16:49;3.75;;;2.10;;
55300;SDS011;58302;51.446;-2.000;2022-11-04T16:19:18;2.85;;;1.65;;
55300;SDS011;58302;51.446;-2.000;2022-11-04T16:21:46;2.33;;;1.10;;
55300;SDS011;58302;51.446;-2.000;2022-11-04T16:24:16;3.17;;;1.55;;
55300;SDS011;58302;51.446;-2.000;2022-11-04T16:26:47;7.38;;;3.33;;
55300;SDS011;58302;51.446;-2.000;2022-11-04T16:29:19;6.45;;;2.65;;
55300;SDS011;58302;51.446;-2.000;2022-11-04T16:31:48;6.10;;;1.90;;
55300;SDS011;58302;51.446;-2.000;2022-11-04T16:34:31;4.50;;;2.97;;
55300;SDS011;58302;51.446;-2.000;2022-11-04T16:36:58;5.63;;;3.00;;
55300;SDS011;58302;51.446;-2.000;2022-11-04T16:39:23;4.60;;;3.10;;
55300;SDS011;58302;51.446;-2.000;2022-11-04T16:41:49;5.40;;;2.80;;
55300;SDS011;58302;51.446;-2.000;2022-11-04T16:44:18;9.60;;;4.53;;
55300;SDS011;58302;51.446;-2.000;2022-11-04T16:46:46;7.18;;;3.70;;
55300;SDS011;58302;51.446;-2.000;2022-11-04T16:49:16;6.20;;;3.70;;
55300;SDS011;58302;51.446;-2.000;2022-11-04T16:51:44;7.25;;;3.63;;
55300;SDS011;58302;51.446;-2.000;2022-11-04T16:54:12;5.95;;;4.88;;
55300;SDS011;58302;51.446;-2.000;2022-11-04T16:56:38;7.50;;;4.10;;
55300;SDS011;58302;51.446;-2.000;2022-11-04T16:59:04;5.07;;;3.65;;
55300;SDS011;58302;51.446;-2.000;2022-11-04T17:01:30;6.40;;;3.80;;
55300;SDS011;58302;51.446;-2.000;2022-11-04T17:03:56;6.93;;;3.75;;
55300;SDS011;58302;51.446;-2.000;2022-11-04T17:06:22;8.38;;;4.30;;
55300;SDS011;58302;51.446;-2.000;2022-11-04T17:08:48;12.57;;;4.78;;
55300;SDS011;58302;51.446;-2.000;2022-11-04T17:11:14;9.35;;;4.28;;
55300;SDS011;58302;51.446;-2.000;2022-11-04T17:13:40;6.80;;;4.07;;
55300;SDS011;58302;51.446;-2.000;2022-11-04T17:16:06;9.25;;;3.60;;